sensor_id;sensor_type;location;lat;lon;timestamp;pressure;altitude;pressure_sealevel;temperature
70668;BMP280;58242;51.250;-1.118;2023-04-25T00:00:18;100172.53;;;13.15
70668;BMP280;58242;51.250;-1.118;2023-04-25T00:02:43;100182.81;;;13.13
70668;BMP280;58242;51.250;-1.118;2023-04-25T00:05:08;100178.13;;;13.10
70668;BMP280;58242;51.250;-1.118;2023-04-25T00:07:34;100183.03;;;13.08
70668;BMP280;58242;51.250;-1.118;2023-04-25T00:10:00;100186.06;;;13.07
70668;BMP280;58242;51.250;-1.118;2023-04-25T00:12:25;100180.25;;;13.05
70668;BMP280;58242;51.250;-1.118;2023-04-25T00:14:54;100170.50;;;13.00
70668;BMP280;58242;51.250;-1.118;2023-04-25T00:17:22;100176.91;;;12.96
70668;BMP280;58242;51.250;-1.118;2023-04-25T00:19:49;100181.28;;;12.89
70668;BMP280;58242;51.250;-1.118;2023-04-25T00:22:15;100182.91;;;12.82
70668;BMP280;58242;51.250;-1.118;2023-04-25T00:24:40;100193.78;;;12.73
70668;BMP280;58242;51.250;-1.118;2023-04-25T00:27:06;100196.22;;;12.66
70668;BMP280;58242;51.250;-1.118;2023-04-25T00:29:31;100196.63;;;12.57
70668;BMP280;58242;51.250;-1.118;2023-04-25T00:31:56;100193.25;;;12.48
70668;BMP280;58242;51.250;-1.118;2023-04-25T00:34:22;100190.31;;;12.41
70668;BMP280;58242;51.250;-1.118;2023-04-25T00:36:47;100199.25;;;12.33
70668;BMP280;58242;51.250;-1.118;2023-04-25T00:39:12;100207.03;;;12.27
70668;BMP280;58242;51.250;-1.118;2023-04-25T00:41:38;100210.59;;;12.19
70668;BMP280;58242;51.250;-1.118;2023-04-25T00:44:03;100213.03;;;12.12
70668;BMP280;58242;51.250;-1.118;2023-04-25T00:46:30;100210.88;;;12.06
70668;BMP280;58242;51.250;-1.118;2023-04-25T00:48:56;100220.22;;;12.00
70668;BMP280;58242;51.250;-1.118;2023-04-25T00:51:21;100225.00;;;11.95
70668;BMP280;58242;51.250;-1.118;2023-04-25T00:53:50;100234.03;;;11.90
70668;BMP280;58242;51.250;-1.118;2023-04-25T00:56:16;100226.50;;;11.84
70668;BMP280;58242;51.250;-1.118;2023-04-25T00:58:41;100228.75;;;11.82
70668;BMP280;58242;51.250;-1.118;2023-04-25T01:01:10;100226.72;;;11.79
70668;BMP280;58242;51.250;-1.118;2023-04-25T01:03:38;100237.63;;;11.74
70668;BMP280;58242;51.250;-1.118;2023-04-25T01:06:07;100226.00;;;11.70
70668;BMP280;58242;51.250;-1.118;2023-04-25T01:08:33;100219.72;;;11.66
70668;BMP280;58242;51.250;-1.118;2023-04-25T01:10:59;100219.91;;;11.62
70668;BMP280;58242;51.250;-1.118;2023-04-25T01:13:24;100219.78;;;11.58
70668;BMP280;58242;51.250;-1.118;2023-04-25T01:15:49;100224.22;;;11.54
70668;BMP280;58242;51.250;-1.118;2023-04-25T01:18:15;100225.97;;;11.50
70668;BMP280;58242;51.250;-1.118;2023-04-25T01:20:42;100226.63;;;11.47
70668;BMP280;58242;51.250;-1.118;2023-04-25T01:23:08;100234.84;;;11.43
70668;BMP280;58242;51.250;-1.118;2023-04-25T01:25:34;100233.91;;;11.39
70668;BMP280;58242;51.250;-1.118;2023-04-25T01:27:59;100227.63;;;11.35
70668;BMP280;58242;51.250;-1.118;2023-04-25T01:30:28;100227.50;;;11.31
70668;BMP280;58242;51.250;-1.118;2023-04-25T01:32:58;100236.50;;;11.27
70668;BMP280;58242;51.250;-1.118;2023-04-25T01:35:24;100235.53;;;11.23
70668;BMP280;58242;51.250;-1.118;2023-04-25T01:37:50;100234.66;;;11.19
70668;BMP280;58242;51.250;-1.118;2023-04-25T01:40:17;100250.22;;;11.17
70668;BMP280;58242;51.250;-1.118;2023-04-25T01:42:45;100245.84;;;11.13
70668;BMP280;58242;51.250;-1.118;2023-04-25T01:45:11;100246.50;;;11.10
70668;BMP280;58242;51.250;-1.118;2023-04-25T01:47:37;100243.69;;;11.07
70668;BMP280;58242;51.250;-1.118;2023-04-25T01:50:05;100247.75;;;11.04
70668;BMP280;58242;51.250;-1.118;2023-04-25T01:52:30;100244.94;;;11.01
70668;BMP280;58242;51.250;-1.118;2023-04-25T01:54:57;100249.06;;;10.98
70668;BMP280;58242;51.250;-1.118;2023-04-25T01:57:24;100256.94;;;10.95
70668;BMP280;58242;51.250;-1.118;2023-04-25T01:59:50;100250.34;;;10.93
70668;BMP280;58242;51.250;-1.118;2023-04-25T02:02:16;100256.31;;;10.90
70668;BMP280;58242;51.250;-1.118;2023-04-25T02:04:42;100253.19;;;10.88
70668;BMP280;58242;51.250;-1.118;2023-04-25T02:07:08;100254.63;;;10.85
70668;BMP280;58242;51.250;-1.118;2023-04-25T02:09:33;100256.38;;;10.81
70668;BMP280;58242;51.250;-1.118;2023-04-25T02:11:58;100255.91;;;10.79
70668;BMP280;58242;51.250;-1.118;2023-04-25T02:14:23;100267.25;;;10.77
70668;BMP280;58242;51.250;-1.118;2023-04-25T02:16:49;100264.44;;;10.73
70668;BMP280;58242;51.250;-1.118;2023-04-25T02:19:16;100262.41;;;10.70
70668;BMP280;58242;51.250;-1.118;2023-04-25T02:21:41;100257.66;;;10.67
70668;BMP280;58242;51.250;-1.118;2023-04-25T02:24:07;100266.03;;;10.66
70668;BMP280;58242;51.250;-1.118;2023-04-25T02:26:32;100262.06;;;10.63
70668;BMP280;58242;51.250;-1.118;2023-04-25T02:28:58;100265.41;;;10.60
70668;BMP280;58242;51.250;-1.118;2023-04-25T02:31:23;100263.81;;;10.59
70668;BMP280;58242;51.250;-1.118;2023-04-25T02:33:48;100264.47;;;10.57
70668;BMP280;58242;51.250;-1.118;2023-04-25T02:36:14;100274.69;;;10.55
70668;BMP280;58242;51.250;-1.118;2023-04-25T02:38:40;100273.44;;;10.52
70668;BMP280;58242;51.250;-1.118;2023-04-25T02:41:05;100272.19;;;10.50
70668;BMP280;58242;51.250;-1.118;2023-04-25T02:43:31;100273.91;;;10.46
70668;BMP280;58242;51.250;-1.118;2023-04-25T02:45:56;100276.09;;;10.44
70668;BMP280;58242;51.250;-1.118;2023-04-25T02:48:21;100281.00;;;10.42
70668;BMP280;58242;51.250;-1.118;2023-04-25T02:50:46;100284.31;;;10.39
70668;BMP280;58242;51.250;-1.118;2023-04-25T02:53:12;100278.47;;;10.37
70668;BMP280;58242;51.250;-1.118;2023-04-25T02:55:37;100279.91;;;10.35
70668;BMP280;58242;51.250;-1.118;2023-04-25T02:58:02;100279.44;;;10.33
70668;BMP280;58242;51.250;-1.118;2023-04-25T03:00:28;100285.09;;;10.31
70668;BMP280;58242;51.250;-1.118;2023-04-25T03:02:53;100281.16;;;10.29
70668;BMP280;58242;51.250;-1.118;2023-04-25T03:05:18;100276.47;;;10.26
70668;BMP280;58242;51.250;-1.118;2023-04-25T03:07:44;100291.25;;;10.24
70668;BMP280;58242;51.250;-1.118;2023-04-25T03:10:11;100291.88;;;10.21
70668;BMP280;58242;51.250;-1.118;2023-04-25T03:12:36;100293.28;;;10.18
70668;BMP280;58242;51.250;-1.118;2023-04-25T03:15:02;100298.16;;;10.16
70668;BMP280;58242;51.250;-1.118;2023-04-25T03:17:28;100293.47;;;10.13
70668;BMP280;58242;51.250;-1.118;2023-04-25T03:19:53;100301.78;;;10.12
70668;BMP280;58242;51.250;-1.118;2023-04-25T03:22:19;100308.53;;;10.09
70668;BMP280;58242;51.250;-1.118;2023-04-25T03:24:44;100311.06;;;10.06
70668;BMP280;58242;51.250;-1.118;2023-04-25T03:27:10;100307.09;;;10.04
70668;BMP280;58242;51.250;-1.118;2023-04-25T03:29:35;100310.41;;;10.01
70668;BMP280;58242;51.250;-1.118;2023-04-25T03:32:00;100309.91;;;9.99
70668;BMP280;58242;51.250;-1.118;2023-04-25T03:34:26;100317.47;;;9.97
70668;BMP280;58242;51.250;-1.118;2023-04-25T03:36:51;100326.91;;;9.94
70668;BMP280;58242;51.250;-1.118;2023-04-25T03:39:16;100322.97;;;9.92
70668;BMP280;58242;51.250;-1.118;2023-04-25T03:41:42;100325.16;;;9.90
70668;BMP280;58242;51.250;-1.118;2023-04-25T03:44:07;100325.81;;;9.87
70668;BMP280;58242;51.250;-1.118;2023-04-25T03:46:32;100325.31;;;9.85
70668;BMP280;58242;51.250;-1.118;2023-04-25T03:48:57;100327.81;;;9.82
70668;BMP280;58242;51.250;-1.118;2023-04-25T03:51:24;100326.56;;;9.79
70668;BMP280;58242;51.250;-1.118;2023-04-25T03:53:50;100326.41;;;9.76
70668;BMP280;58242;51.250;-1.118;2023-04-25T03:56:15;100324.31;;;9.73
70668;BMP280;58242;51.250;-1.118;2023-04-25T03:58:41;100332.94;;;9.70
70668;BMP280;58242;51.250;-1.118;2023-04-25T04:01:06;100332.50;;;9.68
70668;BMP280;58242;51.250;-1.118;2023-04-25T04:03:36;100327.75;;;9.65
70668;BMP280;58242;51.250;-1.118;2023-04-25T04:06:05;100342.81;;;9.61
70668;BMP280;58242;51.250;-1.118;2023-04-25T04:08:32;100348.78;;;9.58
70668;BMP280;58242;51.250;-1.118;2023-04-25T04:10:58;100359.28;;;9.55
70668;BMP280;58242;51.250;-1.118;2023-04-25T04:13:28;100361.50;;;9.53
70668;BMP280;58242;51.250;-1.118;2023-04-25T04:15:54;100350.94;;;9.48
70668;BMP280;58242;51.250;-1.118;2023-04-25T04:18:20;100353.44;;;9.45
70668;BMP280;58242;51.250;-1.118;2023-04-25T04:20:46;100353.28;;;9.41
70668;BMP280;58242;51.250;-1.118;2023-04-25T04:23:11;100366.91;;;9.40
70668;BMP280;58242;51.250;-1.118;2023-04-25T04:25:37;100365.66;;;9.38
70668;BMP280;58242;51.250;-1.118;2023-04-25T04:28:02;100364.38;;;9.35
70668;BMP280;58242;51.250;-1.118;2023-04-25T04:30:28;100363.91;;;9.33
70668;BMP280;58242;51.250;-1.118;2023-04-25T04:32:56;100366.09;;;9.31
70668;BMP280;58242;51.250;-1.118;2023-04-25T04:35:22;100370.16;;;9.29
70668;BMP280;58242;51.250;-1.118;2023-04-25T04:37:48;100370.47;;;9.27
70668;BMP280;58242;51.250;-1.118;2023-04-25T04:40:14;100371.88;;;9.25
70668;BMP280;58242;51.250;-1.118;2023-04-25T04:42:43;100374.03;;;9.15
70668;BMP280;58242;51.250;-1.118;2023-04-25T04:45:09;100378.75;;;9.18
70668;BMP280;58242;51.250;-1.118;2023-04-25T04:47:35;100376.09;;;9.18
70668;BMP280;58242;51.250;-1.118;2023-04-25T04:50:02;100388.63;;;9.17
70668;BMP280;58242;51.250;-1.118;2023-04-25T04:52:27;100391.28;;;9.17
70668;BMP280;58242;51.250;-1.118;2023-04-25T04:54:53;100395.84;;;9.17
70668;BMP280;58242;51.250;-1.118;2023-04-25T04:57:18;100396.94;;;9.16
70668;BMP280;58242;51.250;-1.118;2023-04-25T04:59:43;100406.03;;;9.15
70668;BMP280;58242;51.250;-1.118;2023-04-25T05:02:08;100407.13;;;9.14
70668;BMP280;58242;51.250;-1.118;2023-04-25T05:04:34;100414.03;;;9.15
70668;BMP280;58242;51.250;-1.118;2023-04-25T05:06:59;100415.13;;;9.14
70668;BMP280;58242;51.250;-1.118;2023-04-25T05:09:24;100420.47;;;9.14
70668;BMP280;58242;51.250;-1.118;2023-04-25T05:11:51;100430.34;;;9.13
70668;BMP280;58242;51.250;-1.118;2023-04-25T05:14:16;100426.09;;;9.12
70668;BMP280;58242;51.250;-1.118;2023-04-25T05:16:42;100439.13;;;9.14
70668;BMP280;58242;51.250;-1.118;2023-04-25T05:19:08;100435.38;;;9.15
70668;BMP280;58242;51.250;-1.118;2023-04-25T05:21:33;100436.16;;;9.15
70668;BMP280;58242;51.250;-1.118;2023-04-25T05:23:59;100441.50;;;9.15
70668;BMP280;58242;51.250;-1.118;2023-04-25T05:26:25;100438.50;;;9.17
70668;BMP280;58242;51.250;-1.118;2023-04-25T05:28:50;100438.50;;;9.17
70668;BMP280;58242;51.250;-1.118;2023-04-25T05:31:16;100440.88;;;9.18
70668;BMP280;58242;51.250;-1.118;2023-04-25T05:33:41;100432.09;;;9.18
70668;BMP280;58242;51.250;-1.118;2023-04-25T05:36:07;100441.34;;;9.20
70668;BMP280;58242;51.250;-1.118;2023-04-25T05:38:32;100445.31;;;9.23
70668;BMP280;58242;51.250;-1.118;2023-04-25T05:40:58;100454.09;;;9.23
70668;BMP280;58242;51.250;-1.118;2023-04-25T05:43:23;100461.50;;;9.26
70668;BMP280;58242;51.250;-1.118;2023-04-25T05:45:48;100460.88;;;9.29
70668;BMP280;58242;51.250;-1.118;2023-04-25T05:48:14;100462.91;;;9.32
70668;BMP280;58242;51.250;-1.118;2023-04-25T05:50:39;100464.22;;;9.34
70668;BMP280;58242;51.250;-1.118;2023-04-25T05:53:04;100468.59;;;9.39
70668;BMP280;58242;51.250;-1.118;2023-04-25T05:55:30;100467.69;;;9.43
70668;BMP280;58242;51.250;-1.118;2023-04-25T05:57:56;100473.69;;;9.48
70668;BMP280;58242;51.250;-1.118;2023-04-25T06:00:21;100466.66;;;9.52
70668;BMP280;58242;51.250;-1.118;2023-04-25T06:02:47;100469.19;;;9.57
70668;BMP280;58242;51.250;-1.118;2023-04-25T06:05:13;100469.84;;;9.62
70668;BMP280;58242;51.250;-1.118;2023-04-25T06:07:38;100468.91;;;9.67
70668;BMP280;58242;51.250;-1.118;2023-04-25T06:10:04;100451.97;;;9.71
70668;BMP280;58242;51.250;-1.118;2023-04-25T06:12:34;100451.09;;;9.75
70668;BMP280;58242;51.250;-1.118;2023-04-25T06:15:00;100449.06;;;9.81
70668;BMP280;58242;51.250;-1.118;2023-04-25T06:17:25;100458.53;;;9.87
70668;BMP280;58242;51.250;-1.118;2023-04-25T06:19:51;100458.34;;;9.91
70668;BMP280;58242;51.250;-1.118;2023-04-25T06:22:16;100464.06;;;9.98
70668;BMP280;58242;51.250;-1.118;2023-04-25T06:24:41;100468.94;;;10.05
70668;BMP280;58242;51.250;-1.118;2023-04-25T06:27:07;100481.53;;;10.12
70668;BMP280;58242;51.250;-1.118;2023-04-25T06:29:32;100481.06;;;10.19
70668;BMP280;58242;51.250;-1.118;2023-04-25T06:31:57;100484.56;;;10.27
70668;BMP280;58242;51.250;-1.118;2023-04-25T06:34:23;100486.75;;;10.34
70668;BMP280;58242;51.250;-1.118;2023-04-25T06:36:48;100484.41;;;10.41
70668;BMP280;58242;51.250;-1.118;2023-04-25T06:39:13;100487.44;;;10.47
70668;BMP280;58242;51.250;-1.118;2023-04-25T06:41:39;100491.50;;;10.53
70668;BMP280;58242;51.250;-1.118;2023-04-25T06:44:04;100490.44;;;10.62
70668;BMP280;58242;51.250;-1.118;2023-04-25T06:46:29;100491.53;;;10.78
70668;BMP280;58242;51.250;-1.118;2023-04-25T06:48:54;100491.38;;;10.99
70668;BMP280;58242;51.250;-1.118;2023-04-25T06:51:20;100485.38;;;11.35
70668;BMP280;58242;51.250;-1.118;2023-04-25T06:53:45;100486.22;;;11.72
70668;BMP280;58242;51.250;-1.118;2023-04-25T06:56:11;100477.63;;;12.23
70668;BMP280;58242;51.250;-1.118;2023-04-25T06:58:36;100491.19;;;12.95
70668;BMP280;58242;51.250;-1.118;2023-04-25T07:01:01;100488.44;;;13.78
70668;BMP280;58242;51.250;-1.118;2023-04-25T07:03:27;100486.13;;;14.58
70668;BMP280;58242;51.250;-1.118;2023-04-25T07:05:52;100482.75;;;15.38
70668;BMP280;58242;51.250;-1.118;2023-04-25T07:08:17;100482.47;;;16.14
70668;BMP280;58242;51.250;-1.118;2023-04-25T07:10:43;100482.50;;;16.81
70668;BMP280;58242;51.250;-1.118;2023-04-25T07:13:08;100485.13;;;17.48
70668;BMP280;58242;51.250;-1.118;2023-04-25T07:15:33;100489.47;;;18.18
70668;BMP280;58242;51.250;-1.118;2023-04-25T07:17:59;100490.59;;;18.90
70668;BMP280;58242;51.250;-1.118;2023-04-25T07:20:24;100494.16;;;19.54
70668;BMP280;58242;51.250;-1.118;2023-04-25T07:22:50;100499.00;;;20.17
70668;BMP280;58242;51.250;-1.118;2023-04-25T07:25:16;100487.81;;;20.74
70668;BMP280;58242;51.250;-1.118;2023-04-25T07:27:41;100492.00;;;21.27
70668;BMP280;58242;51.250;-1.118;2023-04-25T07:30:07;100488.25;;;21.76
70668;BMP280;58242;51.250;-1.118;2023-04-25T07:32:32;100494.19;;;22.19
70668;BMP280;58242;51.250;-1.118;2023-04-25T07:34:58;100496.50;;;22.54
70668;BMP280;58242;51.250;-1.118;2023-04-25T07:37:23;100480.50;;;22.87
70668;BMP280;58242;51.250;-1.118;2023-04-25T07:39:48;100485.88;;;23.21
70668;BMP280;58242;51.250;-1.118;2023-04-25T07:42:14;100493.50;;;23.53
70668;BMP280;58242;51.250;-1.118;2023-04-25T07:44:39;100499.94;;;23.86
70668;BMP280;58242;51.250;-1.118;2023-04-25T07:47:08;100502.00;;;24.25
70668;BMP280;58242;51.250;-1.118;2023-04-25T07:49:34;100500.22;;;24.54
70668;BMP280;58242;51.250;-1.118;2023-04-25T07:52:01;100493.53;;;24.98
70668;BMP280;58242;51.250;-1.118;2023-04-25T07:54:26;100504.00;;;25.39
70668;BMP280;58242;51.250;-1.118;2023-04-25T07:56:51;100500.31;;;25.81
70668;BMP280;58242;51.250;-1.118;2023-04-25T07:59:17;100502.41;;;26.22
70668;BMP280;58242;51.250;-1.118;2023-04-25T08:01:42;100508.06;;;26.60
70668;BMP280;58242;51.250;-1.118;2023-04-25T08:04:07;100506.66;;;26.93
70668;BMP280;58242;51.250;-1.118;2023-04-25T08:06:33;100501.28;;;27.28
70668;BMP280;58242;51.250;-1.118;2023-04-25T08:08:58;100501.69;;;27.64
70668;BMP280;58242;51.250;-1.118;2023-04-25T08:11:23;100498.25;;;27.95
70668;BMP280;58242;51.250;-1.118;2023-04-25T08:13:48;100505.41;;;28.24
70668;BMP280;58242;51.250;-1.118;2023-04-25T08:16:14;100507.84;;;28.37
70668;BMP280;58242;51.250;-1.118;2023-04-25T08:18:39;100510.50;;;28.41
70668;BMP280;58242;51.250;-1.118;2023-04-25T08:21:05;100509.03;;;28.52
70668;BMP280;58242;51.250;-1.118;2023-04-25T08:23:31;100505.00;;;28.72
70668;BMP280;58242;51.250;-1.118;2023-04-25T08:25:57;100506.31;;;28.95
70668;BMP280;58242;51.250;-1.118;2023-04-25T08:28:22;100509.16;;;29.19
70668;BMP280;58242;51.250;-1.118;2023-04-25T08:30:47;100511.47;;;29.49
70668;BMP280;58242;51.250;-1.118;2023-04-25T08:33:12;100510.97;;;29.78
70668;BMP280;58242;51.250;-1.118;2023-04-25T08:35:38;100515.00;;;30.01
70668;BMP280;58242;51.250;-1.118;2023-04-25T08:38:03;100525.03;;;30.20
70668;BMP280;58242;51.250;-1.118;2023-04-25T08:40:28;100523.19;;;30.41
70668;BMP280;58242;51.250;-1.118;2023-04-25T08:42:57;100522.56;;;30.70
70668;BMP280;58242;51.250;-1.118;2023-04-25T08:45:22;100523.03;;;31.02
70668;BMP280;58242;51.250;-1.118;2023-04-25T08:47:51;100519.72;;;31.48
70668;BMP280;58242;51.250;-1.118;2023-04-25T08:50:16;100518.63;;;31.88
70668;BMP280;58242;51.250;-1.118;2023-04-25T08:52:45;100530.53;;;32.35
70668;BMP280;58242;51.250;-1.118;2023-04-25T08:55:12;100521.97;;;32.51
70668;BMP280;58242;51.250;-1.118;2023-04-25T08:57:39;100528.28;;;32.60
70668;BMP280;58242;51.250;-1.118;2023-04-25T09:00:05;100531.66;;;32.55
70668;BMP280;58242;51.250;-1.118;2023-04-25T09:02:30;100531.06;;;32.30
70668;BMP280;58242;51.250;-1.118;2023-04-25T09:04:56;100528.94;;;32.26
70668;BMP280;58242;51.250;-1.118;2023-04-25T09:07:22;100531.63;;;32.47
70668;BMP280;58242;51.250;-1.118;2023-04-25T09:09:48;100528.63;;;32.71
70668;BMP280;58242;51.250;-1.118;2023-04-25T09:12:13;100531.44;;;32.97
70668;BMP280;58242;51.250;-1.118;2023-04-25T09:14:38;100525.41;;;33.25
70668;BMP280;58242;51.250;-1.118;2023-04-25T09:17:04;100513.41;;;33.54
70668;BMP280;58242;51.250;-1.118;2023-04-25T09:19:36;100519.22;;;33.82
70668;BMP280;58242;51.250;-1.118;2023-04-25T09:22:04;100512.00;;;34.16
70668;BMP280;58242;51.250;-1.118;2023-04-25T09:24:35;100514.25;;;34.35
70668;BMP280;58242;51.250;-1.118;2023-04-25T09:27:08;100516.13;;;34.29
70668;BMP280;58242;51.250;-1.118;2023-04-25T09:29:35;100522.03;;;34.14
70668;BMP280;58242;51.250;-1.118;2023-04-25T09:34:40;100517.25;;;34.46
70668;BMP280;58242;51.250;-1.118;2023-04-25T09:37:10;100519.38;;;34.28
70668;BMP280;58242;51.250;-1.118;2023-04-25T09:39:37;100523.44;;;33.43
70668;BMP280;58242;51.250;-1.118;2023-04-25T09:42:03;100527.16;;;32.40
70668;BMP280;58242;51.250;-1.118;2023-04-25T09:44:28;100526.94;;;32.26
70668;BMP280;58242;51.250;-1.118;2023-04-25T09:46:54;100520.00;;;32.60
70668;BMP280;58242;51.250;-1.118;2023-04-25T09:49:20;100523.28;;;33.02
70668;BMP280;58242;51.250;-1.118;2023-04-25T09:51:56;100522.22;;;32.35
70668;BMP280;58242;51.250;-1.118;2023-04-25T09:54:23;100509.34;;;32.12
70668;BMP280;58242;51.250;-1.118;2023-04-25T09:56:51;100519.09;;;32.25
70668;BMP280;58242;51.250;-1.118;2023-04-25T09:59:19;100504.50;;;32.33
70668;BMP280;58242;51.250;-1.118;2023-04-25T10:01:44;100512.00;;;32.71
70668;BMP280;58242;51.250;-1.118;2023-04-25T10:04:11;100508.53;;;33.05
70668;BMP280;58242;51.250;-1.118;2023-04-25T10:06:37;100502.78;;;33.44
70668;BMP280;58242;51.250;-1.118;2023-04-25T10:09:03;100502.59;;;33.65
70668;BMP280;58242;51.250;-1.118;2023-04-25T10:11:30;100499.28;;;33.92
70668;BMP280;58242;51.250;-1.118;2023-04-25T10:13:56;100488.59;;;34.08
70668;BMP280;58242;51.250;-1.118;2023-04-25T10:16:22;100487.53;;;34.06
70668;BMP280;58242;51.250;-1.118;2023-04-25T10:18:48;100496.69;;;33.89
70668;BMP280;58242;51.250;-1.118;2023-04-25T10:21:14;100504.03;;;34.01
70668;BMP280;58242;51.250;-1.118;2023-04-25T10:23:41;100495.63;;;34.27
70668;BMP280;58242;51.250;-1.118;2023-04-25T10:26:07;100495.47;;;34.53
70668;BMP280;58242;51.250;-1.118;2023-04-25T10:29:07;100489.66;;;34.65
70668;BMP280;58242;51.250;-1.118;2023-04-25T10:31:32;100503.22;;;34.95
70668;BMP280;58242;51.250;-1.118;2023-04-25T10:33:59;100500.72;;;35.20
70668;BMP280;58242;51.250;-1.118;2023-04-25T10:36:25;100495.63;;;35.32
70668;BMP280;58242;51.250;-1.118;2023-04-25T10:38:52;100498.72;;;35.34
70668;BMP280;58242;51.250;-1.118;2023-04-25T10:41:21;100497.88;;;35.42
70668;BMP280;58242;51.250;-1.118;2023-04-25T10:43:48;100499.25;;;35.61
70668;BMP280;58242;51.250;-1.118;2023-04-25T10:46:28;100515.22;;;35.38
70668;BMP280;58242;51.250;-1.118;2023-04-25T10:48:58;100504.56;;;35.36
70668;BMP280;58242;51.250;-1.118;2023-04-25T10:51:31;100512.25;;;35.41
70668;BMP280;58242;51.250;-1.118;2023-04-25T10:54:01;100501.97;;;35.47
70668;BMP280;58242;51.250;-1.118;2023-04-25T11:01:35;100499.34;;;36.62
70668;BMP280;58242;51.250;-1.118;2023-04-25T11:04:01;100506.63;;;36.93
70668;BMP280;58242;51.250;-1.118;2023-04-25T11:06:31;100507.09;;;37.11
70668;BMP280;58242;51.250;-1.118;2023-04-25T11:09:02;100506.69;;;36.59
70668;BMP280;58242;51.250;-1.118;2023-04-25T11:11:29;100508.72;;;36.45
70668;BMP280;58242;51.250;-1.118;2023-04-25T11:13:54;100508.56;;;36.67
70668;BMP280;58242;51.250;-1.118;2023-04-25T11:16:24;100503.75;;;36.87
70668;BMP280;58242;51.250;-1.118;2023-04-25T11:19:11;100502.09;;;37.14
70668;BMP280;58242;51.250;-1.118;2023-04-25T11:21:36;100505.53;;;37.29
70668;BMP280;58242;51.250;-1.118;2023-04-25T11:24:02;100502.84;;;37.34
70668;BMP280;58242;51.250;-1.118;2023-04-25T11:26:27;100499.47;;;37.31
70668;BMP280;58242;51.250;-1.118;2023-04-25T11:28:57;100509.06;;;37.05
70668;BMP280;58242;51.250;-1.118;2023-04-25T11:31:24;100503.44;;;37.24
70668;BMP280;58242;51.250;-1.118;2023-04-25T11:33:50;100494.72;;;37.36
70668;BMP280;58242;51.250;-1.118;2023-04-25T11:36:16;100501.03;;;37.12
70668;BMP280;58242;51.250;-1.118;2023-04-25T11:38:41;100501.59;;;36.58
70668;BMP280;58242;51.250;-1.118;2023-04-25T11:41:07;100501.31;;;36.08
70668;BMP280;58242;51.250;-1.118;2023-04-25T11:43:32;100493.31;;;36.29
70668;BMP280;58242;51.250;-1.118;2023-04-25T11:45:57;100495.47;;;36.73
70668;BMP280;58242;51.250;-1.118;2023-04-25T11:48:23;100493.13;;;37.30
70668;BMP280;58242;51.250;-1.118;2023-04-25T11:50:48;100492.59;;;37.76
70668;BMP280;58242;51.250;-1.118;2023-04-25T11:53:13;100503.25;;;38.07
70668;BMP280;58242;51.250;-1.118;2023-04-25T11:55:39;100506.25;;;37.74
70668;BMP280;58242;51.250;-1.118;2023-04-25T11:58:05;100497.84;;;37.44
70668;BMP280;58242;51.250;-1.118;2023-04-25T12:00:31;100506.75;;;37.48
70668;BMP280;58242;51.250;-1.118;2023-04-25T12:02:57;100507.59;;;37.53
70668;BMP280;58242;51.250;-1.118;2023-04-25T12:05:30;100491.28;;;37.71
70668;BMP280;58242;51.250;-1.118;2023-04-25T12:07:56;100501.84;;;37.87
70668;BMP280;58242;51.250;-1.118;2023-04-25T12:10:24;100489.59;;;38.15
70668;BMP280;58242;51.250;-1.118;2023-04-25T12:12:50;100501.56;;;38.51
70668;BMP280;58242;51.250;-1.118;2023-04-25T12:15:23;100500.47;;;38.78
70668;BMP280;58242;51.250;-1.118;2023-04-25T12:17:50;100508.97;;;39.05
70668;BMP280;58242;51.250;-1.118;2023-04-25T12:20:18;100503.81;;;38.47
70668;BMP280;58242;51.250;-1.118;2023-04-25T12:22:46;100499.13;;;38.28
70668;BMP280;58242;51.250;-1.118;2023-04-25T12:31:01;100511.03;;;39.10
70668;BMP280;58242;51.250;-1.118;2023-04-25T12:33:34;100512.38;;;38.38
70668;BMP280;58242;51.250;-1.118;2023-04-25T12:36:01;100512.56;;;37.94
70668;BMP280;58242;51.250;-1.118;2023-04-25T12:38:36;100515.41;;;37.99
70668;BMP280;58242;51.250;-1.118;2023-04-25T12:41:02;100510.91;;;38.07
70668;BMP280;58242;51.250;-1.118;2023-04-25T12:43:27;100512.81;;;38.26
70668;BMP280;58242;51.250;-1.118;2023-04-25T12:45:54;100529.66;;;38.36
70668;BMP280;58242;51.250;-1.118;2023-04-25T12:48:21;100511.00;;;38.58
70668;BMP280;58242;51.250;-1.118;2023-04-25T12:50:47;100512.00;;;39.02
70668;BMP280;58242;51.250;-1.118;2023-04-25T12:53:17;100512.41;;;39.41
70668;BMP280;58242;51.250;-1.118;2023-04-25T12:55:42;100509.16;;;39.80
70668;BMP280;58242;51.250;-1.118;2023-04-25T12:58:08;100508.66;;;39.92
70668;BMP280;58242;51.250;-1.118;2023-04-25T13:00:33;100521.38;;;40.30
70668;BMP280;58242;51.250;-1.118;2023-04-25T13:02:59;100517.81;;;40.03
70668;BMP280;58242;51.250;-1.118;2023-04-25T13:05:24;100521.44;;;39.09
70668;BMP280;58242;51.250;-1.118;2023-04-25T13:07:50;100521.50;;;37.73
70668;BMP280;58242;51.250;-1.118;2023-04-25T13:10:16;100520.19;;;36.32
70668;BMP280;58242;51.250;-1.118;2023-04-25T13:12:43;100525.19;;;35.07
70668;BMP280;58242;51.250;-1.118;2023-04-25T13:15:08;100523.81;;;33.94
70668;BMP280;58242;51.250;-1.118;2023-04-25T13:17:36;100523.59;;;32.96
70668;BMP280;58242;51.250;-1.118;2023-04-25T13:20:01;100521.66;;;32.19
70668;BMP280;58242;51.250;-1.118;2023-04-25T13:22:26;100529.03;;;31.63
70668;BMP280;58242;51.250;-1.118;2023-04-25T13:24:52;100526.06;;;31.16
70668;BMP280;58242;51.250;-1.118;2023-04-25T13:27:17;100516.75;;;31.01
70668;BMP280;58242;51.250;-1.118;2023-04-25T13:29:42;100523.47;;;31.54
70668;BMP280;58242;51.250;-1.118;2023-04-25T13:32:08;100500.53;;;31.75
70668;BMP280;58242;51.250;-1.118;2023-04-25T13:34:34;100515.22;;;31.63
70668;BMP280;58242;51.250;-1.118;2023-04-25T13:36:59;100512.66;;;31.26
70668;BMP280;58242;51.250;-1.118;2023-04-25T13:39:25;100515.13;;;30.79
70668;BMP280;58242;51.250;-1.118;2023-04-25T13:41:50;100514.78;;;30.32
70668;BMP280;58242;51.250;-1.118;2023-04-25T13:44:16;100513.00;;;29.89
70668;BMP280;58242;51.250;-1.118;2023-04-25T13:46:41;100514.47;;;29.54
70668;BMP280;58242;51.250;-1.118;2023-04-25T13:49:07;100508.50;;;29.16
70668;BMP280;58242;51.250;-1.118;2023-04-25T13:51:32;100516.59;;;28.79
70668;BMP280;58242;51.250;-1.118;2023-04-25T13:53:57;100513.06;;;28.48